Time;durP1;ratioP1;P1;durP2;ratioP2;P2;SDS_P1;SDS_P2;PMS_P1;PMS_P2;Temp;Humidity;BMP_temperature;BMP_pressure;BME280_temperature;BME280_humidity;BME280_pressure;Samples;Min_cycle;Max_cycle;Signal;HPM_P1;HPM_P2
2022/05/04 05:19:35;;;;;;;;;12.50;12.25;;;;;18.40;50.62;101538.31;5079059;27;45822;-72
2022/05/04 05:22:00;;;;;;;;;13.25;12.00;;;;;18.55;50.52;101545.22;5064967;27;45414;-71
2022/05/04 05:24:25;;;;;;;;;13.75;12.00;;;;;18.81;50.46;101544.22;5068998;27;45396;-71
2022/05/04 05:26:51;;;;;;;;;10.50;10.25;;;;;19.13;50.80;101546.25;5069473;27;45525;-71
2022/05/04 05:29:16;;;;;;;;;15.75;11.75;;;;;19.49;50.50;101547.03;5066518;28;48487;-71
2022/05/04 05:31:41;;;;;;;;;13.75;12.25;;;;;19.86;49.55;101542.34;5067388;27;45581;-71
2022/05/04 05:34:07;;;;;;;;;11.75;10.50;;;;;20.21;49.39;101541.34;5063860;27;45625;-73
2022/05/04 05:36:32;;;;;;;;;10.25;9.25;;;;;20.57;48.58;101540.25;5061368;27;45475;-73
2022/05/04 05:38:57;;;;;;;;;10.00;10.00;;;;;20.89;48.51;101534.81;5068505;27;45277;-73
2022/05/04 05:41:23;;;;;;;;;10.25;10.25;;;;;21.21;47.57;101540.28;5065933;28;52053;-72
2022/05/04 05:43:50;;;;;;;;;9.50;9.50;;;;;21.49;47.33;101522.50;5066760;27;45474;-72
2022/05/04 05:46:15;;;;;;;;;12.25;12.25;;;;;21.76;47.56;101536.41;5066699;28;45704;-73
2022/05/04 05:48:41;;;;;;;;;13.75;11.25;;;;;21.98;46.83;101535.34;5066884;27;45450;-72
2022/05/04 05:51:06;;;;;;;;;12.75;12.75;;;;;22.24;46.37;101538.38;5065297;28;45551;-72
2022/05/04 05:53:32;;;;;;;;;10.75;10.50;;;;;22.47;45.95;101538.09;5070953;27;45735;-71
2022/05/04 05:55:58;;;;;;;;;14.00;14.00;;;;;22.69;45.67;101533.44;5066384;27;46213;-73
2022/05/04 05:58:23;;;;;;;;;12.67;10.67;;;;;22.92;45.16;101543.09;5063366;27;45569;-71
2022/05/04 06:00:49;;;;;;;;;9.33;9.33;;;;;23.10;45.12;101543.19;5063989;28;45454;-72
2022/05/04 06:03:15;;;;;;;;;10.00;10.00;;;;;23.25;44.65;101539.00;5067402;28;45550;-70
2022/05/04 06:05:41;;;;;;;;;10.33;10.33;;;;;23.37;44.46;101546.97;5066671;28;45486;-71
2022/05/04 06:08:09;;;;;;;;;10.00;10.00;;;;;23.54;44.15;101553.50;5069449;27;45774;-70
2022/05/04 06:10:35;;;;;;;;;10.33;10.33;;;;;23.67;43.85;101553.16;5064183;28;45573;-72
2022/05/04 06:13:00;;;;;;;;;9.33;8.00;;;;;23.80;43.75;101548.22;5066916;27;45454;-73
2022/05/04 06:15:25;;;;;;;;;12.67;10.33;;;;;23.89;43.80;101559.16;5065723;27;45415;-72
2022/05/04 06:17:51;;;;;;;;;11.33;10.67;;;;;23.97;43.21;101555.69;5074808;27;46289;-72
2022/05/04 06:20:17;;;;;;;;;10.33;10.33;;;;;24.05;43.18;101553.09;5087233;27;45637;-73
2022/05/04 06:22:42;;;;;;;;;9.67;9.67;;;;;24.14;42.84;101549.47;5084944;27;45874;-73
2022/05/04 06:25:08;;;;;;;;;11.67;11.00;;;;;24.18;42.91;101558.16;5081846;27;45601;-72
2022/05/04 06:27:33;;;;;;;;;9.33;9.00;;;;;24.26;42.74;101565.53;5067752;27;48475;-73
2022/05/04 06:35:26;;;;;;;;;9.67;9.67;;;;;24.48;40.65;101564.22;5075122;28;45821;-75
2022/05/04 06:37:52;;;;;;;;;11.33;11.33;;;;;24.52;40.80;101572.91;5073376;28;48009;-74
2022/05/04 06:40:17;;;;;;;;;13.67;13.33;;;;;24.53;40.54;101578.19;5062439;28;45778;-75
2022/05/04 06:42:43;;;;;;;;;13.33;11.33;;;;;24.54;40.25;101570.88;5053211;28;45439;-72
2022/05/04 06:45:09;;;;;;;;;12.67;12.67;;;;;24.51;40.41;101579.34;5073041;28;45431;-72
2022/05/04 06:47:35;;;;;;;;;14.00;12.33;;;;;24.48;40.38;101583.22;5072420;28;45794;-73
2022/05/04 06:50:01;;;;;;;;;10.33;9.33;;;;;24.48;40.61;101578.66;5068312;28;45381;-72
2022/05/04 06:52:26;;;;;;;;;12.00;12.00;;;;;24.45;40.84;101583.53;5068767;28;45961;-72
2022/05/04 06:54:52;;;;;;;;;12.67;12.67;;;;;24.47;40.55;101581.50;5073724;28;45471;-72
2022/05/04 06:57:17;;;;;;;;;13.33;12.67;;;;;24.46;40.88;101571.66;5073070;28;45435;-72
2022/05/04 06:59:43;;;;;;;;;14.00;11.67;;;;;24.50;40.87;101577.63;5072005;28;54631;-73
2022/05/04 07:02:08;;;;;;;;;13.33;12.33;;;;;24.51;40.91;101582.91;5071217;27;45509;-72
2022/05/04 07:04:33;;;;;;;;;10.67;10.67;;;;;24.52;40.72;101579.19;5068970;28;45675;-73
2022/05/04 07:06:59;;;;;;;;;11.00;10.33;;;;;24.51;40.70;101576.63;5078380;27;46157;-73
2022/05/04 07:09:24;;;;;;;;;10.67;10.67;;;;;24.49;40.84;101579.50;5073918;27;45531;-72
2022/05/04 07:11:49;;;;;;;;;12.67;12.00;;;;;24.48;41.06;101581.38;5073735;28;46936;-72
2022/05/04 07:14:15;;;;;;;;;14.33;11.00;;;;;24.48;41.05;101577.78;5072074;28;45375;-71
2022/05/04 07:16:40;;;;;;;;;12.67;11.33;;;;;24.51;41.08;101585.63;5070896;28;54325;-72
2022/05/04 07:19:05;;;;;;;;;12.67;10.67;;;;;24.51;41.00;101576.63;5071873;28;51295;-72
2022/05/04 07:21:31;;;;;;;;;12.00;11.33;;;;;24.52;41.00;101590.03;5063488;27;45419;-73
2022/05/04 07:23:56;;;;;;;;;11.00;11.00;;;;;24.56;41.18;101590.59;5068030;27;45419;-72
2022/05/04 07:26:21;;;;;;;;;10.67;10.67;;;;;24.60;41.08;101591.97;5047856;28;54639;-72
2022/05/04 07:28:47;;;;;;;;;12.00;10.33;;;;;24.64;41.09;101598.81;5071281;28;55045;-71
2022/05/04 07:31:12;;;;;;;;;13.67;11.33;;;;;24.65;40.52;101584.25;5065849;27;48552;-74
2022/05/04 07:33:37;;;;;;;;;13.00;12.00;;;;;24.79;39.65;101592.81;5050293;28;46595;-74
2022/05/04 07:36:04;;;;;;;;;14.33;14.33;;;;;24.88;39.77;101594.63;5063528;27;46258;-72
2022/05/04 07:38:29;;;;;;;;;14.33;14.33;;;;;24.91;39.34;101597.03;5072702;28;45443;-73
2022/05/04 07:43:38;;;;;;;;;17.33;13.67;;;;;25.05;39.16;101600.22;5070991;28;46194;-72
2022/05/04 07:46:04;;;;;;;;;10.67;9.67;;;;;25.08;39.22;101603.44;5064849;28;49292;-72
2022/05/04 07:48:29;;;;;;;;;12.67;12.67;;;;;25.05;39.19;101606.47;5070939;28;45848;-72
2022/05/04 07:50:54;;;;;;;;;13.33;13.00;;;;;24.98;39.48;101606.25;5071341;28;45750;-72
2022/05/04 07:53:20;;;;;;;;;14.00;14.00;;;;;24.95;39.34;101612.00;5075021;28;51605;-71
2022/05/04 07:55:47;;;;;;;;;12.33;12.33;;;;;24.92;39.75;101596.03;5069996;28;45948;-71
2022/05/04 07:58:13;;;;;;;;;17.67;12.67;;;;;24.91;39.67;101609.75;5072274;28;45756;-72
2022/05/04 08:06:06;;;;;;;;;12.00;11.67;;;;;24.79;40.29;101618.13;5068009;28;46416;-72
2022/05/04 08:08:31;;;;;;;;;13.33;13.33;;;;;24.77;40.34;101616.56;5065660;27;45526;-72
2022/05/04 08:10:57;;;;;;;;;15.00;12.33;;;;;24.73;40.50;101616.03;5069946;28;45557;-72
2022/05/04 08:13:22;;;;;;;;;15.00;12.33;;;;;24.70;40.40;101619.91;5069803;28;45545;-72
2022/05/04 08:15:48;;;;;;;;;12.33;12.33;;;;;24.70;40.51;101616.34;5068808;28;45446;-73
2022/05/04 08:18:14;;;;;;;;;10.00;9.67;;;;;24.70;40.74;101616.34;5060497;28;45717;-72
2022/05/04 08:20:39;;;;;;;;;13.00;12.00;;;;;24.71;40.87;101616.19;5058626;28;45560;-72
2022/05/04 08:23:05;;;;;;;;;17.67;14.33;;;;;24.75;41.08;101624.88;5068084;28;45509;-72
2022/05/04 08:25:31;;;;;;;;;10.33;10.33;;;;;24.79;41.14;101617.25;5072697;28;45396;-72
2022/05/04 08:27:56;;;;;;;;;29.75;27.50;;;;;24.82;39.22;101615.09;5071800;27;45691;-73
2022/05/04 08:30:23;;;;;;;;;28.75;26.00;;;;;24.82;38.89;101614.25;5070813;28;45359;-72
2022/05/04 08:32:50;;;;;;;;;24.50;24.25;;;;;24.80;39.10;101625.25;5071902;28;45422;-74
2022/05/04 08:35:15;;;;;;;;;26.33;22.00;;;;;24.78;39.37;101621.84;5073067;28;45527;-73
2022/05/04 08:37:41;;;;;;;;;22.67;19.00;;;;;24.77;39.36;101622.84;5071222;28;45439;-75
2022/05/04 08:40:08;;;;;;;;;23.67;18.00;;;;;24.78;39.68;101621.84;5071105;28;45629;-75
2022/05/04 08:42:40;;;;;;;;;23.00;18.00;;;;;24.79;39.72;101615.41;5069850;28;45523;-74
2022/05/04 08:45:06;;;;;;;;;20.33;18.33;;;;;24.81;40.06;101620.69;5068486;28;46156;-73
2022/05/04 08:47:34;;;;;;;;;18.75;18.75;;;;;24.83;39.71;101624.13;5072206;28;45800;-72
2022/05/04 08:50:00;;;;;;;;;14.67;14.00;;;;;24.83;40.10;101621.41;5061031;28;53169;-72
2022/05/04 08:52:27;;;;;;;;;19.33;17.33;;;;;24.82;40.16;101622.38;5066509;28;45723;-72
2022/05/04 08:54:54;;;;;;;;;21.00;19.00;;;;;24.82;40.15;101625.97;5070366;28;45569;-72
2022/05/04 08:57:21;;;;;;;;;19.67;18.67;;;;;24.81;40.38;101616.09;5072068;28;45431;-72
2022/05/04 08:59:46;;;;;;;;;19.00;16.67;;;;;24.82;40.48;101625.09;5071716;28;45450;-71
2022/05/04 09:02:11;;;;;;;;;14.33;14.33;;;;;24.83;40.65;101629.53;5072147;28;45497;-72
2022/05/04 09:04:42;;;;;;;;;19.67;17.00;;;;;24.82;40.35;101625.97;5069214;28;46961;-72
2022/05/04 09:07:24;;;;;;;;;17.00;15.33;;;;;24.87;40.83;101622.78;5071854;28;45464;-73
2022/05/04 09:09:51;;;;;;;;;16.67;16.00;;;;;24.88;40.62;101623.66;5071056;28;45392;-72
2022/05/04 09:12:17;;;;;;;;;16.00;14.00;;;;;24.89;40.48;101622.66;5070905;28;45403;-72
2022/05/04 09:14:44;;;;;;;;;16.00;15.67;;;;;24.90;40.84;101619.78;5071019;28;45979;-73
2022/05/04 09:17:13;;;;;;;;;15.00;15.00;;;;;24.92;40.74;101615.03;5071107;27;45467;-72
2022/05/04 09:20:44;;;;;;;;;17.33;15.67;;;;;24.93;40.89;101613.19;5062325;27;45536;-73
2022/05/04 09:22:27;;;;;;;;;17.33;17.33;;;;;24.93;40.90;101613.19;5070427;27;45426;-72
2022/05/04 09:24:56;;;;;;;;;13.00;10.33;;;;;24.97;41.06;101620.00;5064733;27;46060;-72
2022/05/04 09:27:29;;;;;;;;;13.33;13.33;;;;;24.97;40.89;101615.41;5072080;28;45478;-73
2022/05/04 09:29:59;;;;;;;;;16.33;14.00;;;;;24.98;40.91;101614.38;5069824;28;45534;-73
2022/05/04 09:32:30;;;;;;;;;15.00;13.00;;;;;24.99;40.85;101616.13;5040790;28;45477;-72
2022/05/04 09:34:55;;;;;;;;;14.00;11.67;;;;;25.00;41.21;101606.97;5069079;28;46165;-72
2022/05/04 09:45:38;;;;;;;;;11.67;11.33;;;;;25.11;40.46;101605.88;5059212;28;45346;-73
2022/05/04 09:48:04;;;;;;;;;33.50;31.75;;;;;25.10;38.80;101608.72;5070907;28;53391;-72
2022/05/04 09:50:38;;;;;;;;;36.25;32.00;;;;;24.98;38.25;101602.69;5063463;28;45526;-72
2022/05/04 09:53:04;;;;;;;;;37.75;34.00;;;;;24.91;37.52;101599.75;5071455;28;45875;-73
2022/05/04 09:55:29;;;;;;;;;35.25;31.50;;;;;24.88;37.72;101594.63;5068414;28;47868;-72
2022/05/04 09:57:56;;;;;;;;;25.75;24.75;;;;;24.97;37.97;101593.69;5069804;28;45519;-72
2022/05/04 10:00:24;;;;;;;;;28.00;25.75;;;;;25.04;38.09;101599.34;5065992;28;45814;-72
2022/05/04 10:02:52;;;;;;;;;27.00;23.25;;;;;25.00;37.84;101600.66;5050434;28;45352;-73
2022/05/04 10:05:20;;;;;;;;;27.25;25.25;;;;;25.02;37.68;101595.94;5067336;27;45546;-74
2022/05/04 10:07:47;;;;;;;;;27.00;24.00;;;;;25.03;37.08;101592.22;5073023;28;45331;-74
2022/05/04 10:10:17;;;;;;;;;26.00;22.00;;;;;25.02;37.03;101595.06;5073199;28;45468;-73
2022/05/04 10:12:43;;;;;;;;;24.00;23.00;;;;;24.98;36.75;101586.41;5073778;28;45572;-74
2022/05/04 10:15:11;;;;;;;;;27.75;23.50;;;;;25.00;36.63;101587.09;5073304;27;45489;-74
2022/05/04 10:18:07;;;;;;;;;23.67;21.67;;;;;24.97;36.32;101590.13;5056164;28;45687;-73
2022/05/04 10:20:44;;;;;;;;;28.25;24.25;;;;;24.97;36.35;101592.84;5076272;28;45427;-74
2022/05/04 10:23:22;;;;;;;;;26.00;22.25;;;;;24.95;36.53;101587.56;5057191;28;45772;-74
2022/05/04 10:25:48;;;;;;;;;31.00;25.50;;;;;24.99;36.69;101585.38;5071154;28;46448;-73
2022/05/04 10:28:15;;;;;;;;;29.50;24.75;;;;;25.05;36.39;101587.47;5061108;28;45482;-74
2022/05/04 10:30:54;;;;;;;;;27.75;27.00;;;;;25.10;36.38;101597.88;5062813;28;45454;-74
2022/05/04 10:33:23;;;;;;;;;28.00;26.75;;;;;25.09;35.66;101597.00;5059639;28;45851;-74
2022/05/04 10:35:49;;;;;;;;;29.75;26.50;;;;;25.13;35.95;101594.81;5064123;28;45510;-74
2022/05/04 10:38:15;;;;;;;;;29.75;24.00;;;;;25.17;35.85;101598.09;5076163;28;45776;-75
2022/05/04 10:41:00;;;;;;;;;33.75;32.25;;;;;25.20;35.10;101601.34;5074730;28;45540;-76
2022/05/04 10:43:45;;;;;;;;;32.25;31.00;;;;;25.25;34.96;101608.97;5072731;28;53656;-76
2022/05/04 10:46:23;;;;;;;;;27.75;27.25;;;;;25.27;34.27;101602.38;5071970;28;45486;-74
2022/05/04 10:48:55;;;;;;;;;29.50;28.25;;;;;25.26;34.03;101608.00;5067328;28;45411;-74
2022/05/04 10:51:24;;;;;;;;;26.00;25.75;;;;;25.23;34.68;101603.75;5074747;28;45505;-74
2022/05/04 10:53:59;;;;;;;;;29.50;24.75;;;;;25.21;34.92;101605.75;5074864;27;47963;-74
2022/05/04 10:56:27;;;;;;;;;24.75;23.00;;;;;25.20;34.83;101606.75;5069219;28;46242;-73
2022/05/04 10:59:00;;;;;;;;;22.00;20.67;;;;;25.08;34.78;101599.88;5071203;28;45453;-72
2022/05/04 11:01:27;;;;;;;;;27.67;25.33;;;;;25.04;35.21;101599.34;5071930;28;45403;-71
2022/05/04 11:04:11;;;;;;;;;29.00;23.67;;;;;25.10;35.22;101595.97;5073160;28;45415;-72
2022/05/04 11:06:45;;;;;;;;;23.50;23.00;;;;;25.13;35.33;101598.38;5061817;28;47601;-72
2022/05/04 11:09:11;;;;;;;;;19.50;18.25;;;;;25.11;35.64;101602.28;5064217;28;45716;-72
2022/05/04 11:11:38;;;;;;;;;23.67;20.67;;;;;25.07;35.81;101604.47;5076218;28;45789;-71
2022/05/04 11:14:05;;;;;;;;;20.25;20.25;;;;;25.02;35.98;101595.94;5074762;28;45671;-72
2022/05/04 11:16:31;;;;;;;;;17.67;17.00;;;;;24.98;36.38;101594.56;5074626;27;46014;-72
2022/05/04 11:19:01;;;;;;;;;21.00;18.00;;;;;24.99;36.44;101596.25;5079941;27;45785;-72
2022/05/04 11:21:29;;;;;;;;;19.00;17.00;;;;;25.00;36.59;101593.38;5069077;28;45630;-71
2022/05/04 11:23:56;;;;;;;;;18.67;18.33;;;;;25.07;36.55;101590.88;5067392;28;51564;-71
2022/05/04 11:26:27;;;;;;;;;18.67;18.33;;;;;25.16;36.58;101596.34;5073211;27;46060;-72
2022/05/04 11:28:53;;;;;;;;;15.33;15.00;;;;;25.23;36.64;101592.88;5074789;28;45519;-71
2022/05/04 11:31:20;;;;;;;;;21.00;18.67;;;;;25.29;36.65;101591.34;5051148;28;45774;-80
2022/05/04 11:33:47;;;;;;;;;19.00;17.67;;;;;25.41;36.13;101602.81;5072253;28;45759;-72
2022/05/04 11:36:16;;;;;;;;;19.00;17.33;;;;;25.43;36.41;101598.09;5073357;28;46102;-72
2022/05/04 11:38:44;;;;;;;;;17.33;15.33;;;;;25.41;36.27;101593.81;5072874;28;45490;-72
2022/05/04 11:41:11;;;;;;;;;15.67;15.67;;;;;25.40;36.85;101598.41;5072528;28;45425;-73
2022/05/04 11:43:37;;;;;;;;;21.00;19.33;;;;;25.42;36.43;101590.91;5071750;28;45471;-71
2022/05/04 11:46:09;;;;;;;;;16.67;15.33;;;;;25.45;36.71;101587.03;5069826;28;45446;-72
2022/05/04 11:48:37;;;;;;;;;16.00;15.00;;;;;25.48;36.39;101576.72;5062997;28;45444;-71
2022/05/04 11:51:04;;;;;;;;;16.67;16.00;;;;;25.52;36.59;101577.22;5072429;28;45504;-72
2022/05/04 11:53:30;;;;;;;;;17.67;15.67;;;;;25.49;36.95;101577.53;5065405;28;46095;-71
2022/05/04 11:55:59;;;;;;;;;20.67;15.67;;;;;25.44;37.12;101572.59;5067112;28;46286;-72
2022/05/04 11:58:27;;;;;;;;;15.67;13.67;;;;;25.41;37.28;101575.63;5072763;28;45358;-72
2022/05/04 12:00:53;;;;;;;;;15.67;14.00;;;;;25.41;37.22;101569.38;5073303;28;46457;-72
2022/05/04 12:03:19;;;;;;;;;14.33;13.33;;;;;25.41;37.51;101580.25;5071678;28;45538;-72
2022/05/04 12:05:46;;;;;;;;;15.33;13.33;;;;;25.43;37.76;101583.63;5061995;28;46186;-72
2022/05/04 12:08:14;;;;;;;;;14.67;14.67;;;;;25.45;37.52;101579.75;5070769;28;45601;-71
2022/05/04 12:10:41;;;;;;;;;18.67;16.00;;;;;25.47;37.73;101583.13;5072327;28;45811;-71
2022/05/04 12:13:06;;;;;;;;;15.00;14.33;;;;;25.49;37.92;101578.41;5073361;28;45552;-72
2022/05/04 12:15:31;;;;;;;;;12.00;12.00;;;;;25.55;37.65;101586.94;5065800;27;53986;-71
2022/05/04 12:17:59;;;;;;;;;14.00;11.33;;;;;25.60;37.74;101585.47;5059769;28;45569;-72
2022/05/04 12:20:24;;;;;;;;;15.00;13.00;;;;;25.61;38.11;101584.44;5074575;28;45506;-72
2022/05/04 12:22:50;;;;;;;;;13.00;11.67;;;;;25.68;38.14;101575.63;5070771;28;46747;-72
2022/05/04 12:25:19;;;;;;;;;12.67;12.33;;;;;25.73;37.41;101573.28;5072209;28;45571;-73
2022/05/04 12:27:44;;;;;;;;;12.33;12.00;;;;;25.79;36.44;101578.91;5071405;28;45522;-72
2022/05/04 12:33:09;;;;;;;;;17.33;13.33;;;;;25.97;36.46;101568.94;5070054;28;45450;-72
2022/05/04 12:35:37;;;;;;;;;13.33;13.33;;;;;26.03;36.40;101569.13;5073082;28;45427;-72
2022/05/04 12:38:03;;;;;;;;;18.33;13.67;;;;;26.10;36.32;101576.63;5070282;28;45390;-71
2022/05/04 12:40:31;;;;;;;;;16.00;13.33;;;;;26.12;36.21;101564.56;5046570;28;54977;-72
2022/05/04 12:42:59;;;;;;;;;20.67;15.67;;;;;26.13;35.92;101568.13;5072107;28;45704;-71
2022/05/04 12:45:25;;;;;;;;;14.67;14.33;;;;;26.13;35.72;101569.00;5071070;28;46183;-72
2022/05/04 12:47:52;;;;;;;;;11.33;11.33;;;;;26.12;35.61;101574.59;5072638;28;45747;-72
2022/05/04 12:50:20;;;;;;;;;18.33;15.00;;;;;26.09;35.66;101559.47;5073806;28;45439;-75
2022/05/04 12:52:46;;;;;;;;;15.67;13.33;;;;;26.03;36.05;101557.38;5071556;28;45431;-73
2022/05/04 12:55:11;;;;;;;;;15.33;13.67;;;;;25.99;35.71;101553.31;5068780;28;46037;-72
2022/05/04 12:57:37;;;;;;;;;14.00;14.00;;;;;25.98;35.89;101555.19;5051140;28;51066;-74
2022/05/04 13:00:04;;;;;;;;;20.67;13.67;;;;;25.96;34.92;101546.34;5070664;28;47117;-73
2022/05/04 13:02:30;;;;;;;;;15.67;13.00;;;;;25.96;33.78;101546.34;5074489;28;45417;-73
2022/05/04 13:04:55;;;;;;;;;13.33;11.67;;;;;25.94;33.10;101544.81;5060078;28;46070;-73
2022/05/04 13:07:21;;;;;;;;;16.00;14.67;;;;;25.91;33.22;101548.69;5069059;28;45439;-73
2022/05/04 13:09:46;;;;;;;;;12.00;12.00;;;;;25.90;34.25;101553.28;5065534;28;45514;-73
2022/05/04 13:12:13;;;;;;;;;10.33;7.67;;;;;25.82;35.23;101547.81;5071151;28;45476;-73
2022/05/04 13:14:38;;;;;;;;;15.00;11.00;;;;;25.72;33.62;101549.81;5061843;28;45578;-75
2022/05/04 13:17:04;;;;;;;;;13.67;13.67;;;;;25.65;33.81;101546.91;5072087;28;45451;-73
2022/05/04 13:19:31;;;;;;;;;13.00;12.67;;;;;25.53;34.75;101541.75;5070227;28;45527;-73
2022/05/04 13:21:56;;;;;;;;;11.33;10.00;;;;;25.49;34.73;101544.94;5070636;28;45435;-73
2022/05/04 13:24:22;;;;;;;;;12.67;12.00;;;;;25.44;34.46;101542.72;5071308;28;45467;-73
2022/05/04 13:26:47;;;;;;;;;9.33;8.33;;;;;25.38;34.13;101532.50;5072491;28;45194;-73
2022/05/04 13:29:13;;;;;;;;;11.67;11.67;;;;;25.34;34.62;101529.22;5063416;28;45508;-73
2022/05/04 13:31:40;;;;;;;;;9.33;9.33;;;;;25.29;34.52;101531.59;5068713;28;45487;-73
2022/05/04 13:34:05;;;;;;;;;12.00;11.00;;;;;25.17;34.39;101525.56;5069455;27;45474;-74
2022/05/04 13:36:31;;;;;;;;;10.33;10.33;;;;;25.16;34.79;101537.47;5052975;28;45534;-75
2022/05/04 13:38:56;;;;;;;;;10.00;10.00;;;;;25.11;34.94;101534.38;5064800;27;45971;-74
2022/05/04 13:41:22;;;;;;;;;11.33;11.33;;;;;25.13;35.25;101530.47;5075219;28;45534;-74
2022/05/04 13:43:47;;;;;;;;;11.67;11.33;;;;;25.20;34.82;101524.41;5073372;28;46394;-74
2022/05/04 13:46:14;;;;;;;;;13.33;13.33;;;;;25.30;34.92;101525.13;5075726;28;45367;-74
2022/05/04 13:48:40;;;;;;;;;10.00;10.00;;;;;25.38;34.91;101517.03;5075394;28;45539;-72
2022/05/04 13:53:49;;;;;;;;;11.67;10.33;;;;;25.50;34.77;101512.16;5073524;28;45385;-73
2022/05/04 13:56:15;;;;;;;;;11.00;11.00;;;;;25.53;34.93;101516.41;5077684;28;45454;-75
2022/05/04 13:58:40;;;;;;;;;9.67;9.67;;;;;25.57;34.89;101511.53;5073914;28;45443;-75
2022/05/04 14:01:05;;;;;;;;;11.67;11.00;;;;;25.57;34.71;101516.97;5071202;28;45596;-72
2022/05/04 14:03:32;;;;;;;;;9.00;8.33;;;;;25.52;34.93;101512.00;5073373;28;45442;-72
2022/05/04 14:05:57;;;;;;;;;14.00;10.00;;;;;25.45;35.25;101516.38;5073965;28;45499;-73
2022/05/04 14:08:23;;;;;;;;;9.33;8.00;;;;;25.41;35.42;101510.41;5075029;28;45376;-72
2022/05/04 14:10:50;;;;;;;;;12.33;11.67;;;;;25.39;35.78;101516.00;5074403;28;50206;-72
2022/05/04 14:13:24;;;;;;;;;13.00;12.67;;;;;25.39;35.93;101507.84;5075478;28;45901;-72
2022/05/04 14:15:51;;;;;;;;;10.00;10.00;;;;;25.45;35.73;101508.22;5072849;28;45428;-73
2022/05/04 14:18:17;;;;;;;;;11.00;10.00;;;;;25.54;35.05;101501.81;5074484;28;45439;-72
2022/05/04 14:20:43;;;;;;;;;16.33;12.33;;;;;25.63;34.90;101505.47;5074783;28;45468;-73
2022/05/04 14:23:08;;;;;;;;;9.00;8.33;;;;;25.69;34.56;101509.38;5056409;28;47076;-72
2022/05/04 14:25:34;;;;;;;;;12.67;11.33;;;;;25.69;34.62;101499.34;5072431;28;45317;-72
2022/05/04 14:28:00;;;;;;;;;14.00;11.67;;;;;25.69;34.79;101502.06;5068237;28;45440;-73
2022/05/04 14:30:26;;;;;;;;;12.00;10.00;;;;;25.70;34.62;101492.88;5070339;28;45522;-72
2022/05/04 14:32:51;;;;;;;;;10.00;10.00;;;;;25.69;34.95;101499.34;5074036;28;45521;-72
2022/05/04 14:35:17;;;;;;;;;12.00;11.33;;;;;25.69;34.78;101495.78;5073514;28;45693;-72
2022/05/04 14:37:42;;;;;;;;;13.00;10.50;;;;;25.72;34.72;101498.16;5050836;28;45465;-72
2022/05/04 14:40:08;;;;;;;;;12.00;12.00;;;;;25.72;34.55;101490.00;5069602;28;45444;-72
2022/05/04 14:42:33;;;;;;;;;11.33;10.33;;;;;25.71;34.72;101491.88;5058294;28;45828;-72
2022/05/04 14:44:58;;;;;;;;;9.67;9.67;;;;;25.68;34.72;101491.34;5055670;28;45553;-72
2022/05/04 14:47:24;;;;;;;;;11.00;9.67;;;;;25.67;34.48;101489.66;5075619;28;45434;-72
2022/05/04 14:49:49;;;;;;;;;11.67;10.33;;;;;25.66;34.62;101486.06;5051370;28;45642;-72
2022/05/04 14:52:15;;;;;;;;;10.00;8.00;;;;;25.65;34.08;101492.53;5072644;28;46505;-72
2022/05/04 14:54:40;;;;;;;;;7.67;6.67;;;;;25.65;32.95;101487.97;5074243;28;45887;-72
2022/05/04 14:57:06;;;;;;;;;7.67;6.00;;;;;25.67;32.46;101493.25;5066405;28;45482;-73
2022/05/04 14:59:32;;;;;;;;;4.67;4.67;;;;;25.68;31.42;101489.50;5076033;28;45376;-72
2022/05/04 15:01:58;;;;;;;;;7.00;5.00;;;;;25.61;31.64;101486.59;5062901;28;45423;-71
2022/05/04 15:07:07;;;;;;;;;6.67;5.67;;;;;25.42;32.93;101484.09;5065861;28;45416;-71
2022/05/04 15:09:33;;;;;;;;;8.00;7.00;;;;;25.46;32.97;101480.06;5046672;28;45551;-72
2022/05/04 15:11:58;;;;;;;;;5.67;5.67;;;;;25.50;33.10;101481.44;5072926;28;47097;-71
2022/05/04 15:14:24;;;;;;;;;7.33;7.33;;;;;25.55;33.02;101475.50;5073851;28;45510;-72
2022/05/04 15:16:49;;;;;;;;;8.33;6.33;;;;;25.57;33.51;101477.06;5066196;28;45422;-73
2022/05/04 15:19:15;;;;;;;;;7.00;7.00;;;;;25.59;33.17;101476.91;5062527;28;53768;-72
2022/05/04 15:21:40;;;;;;;;;8.33;6.33;;;;;25.61;33.19;101480.28;5063022;28;45977;-72
2022/05/04 15:24:06;;;;;;;;;7.67;7.00;;;;;25.63;33.05;101486.44;5072757;28;45435;-72
2022/05/04 15:26:32;;;;;;;;;7.00;7.00;;;;;25.65;33.21;101479.81;5075077;27;45490;-75
2022/05/04 15:28:58;;;;;;;;;7.67;7.67;;;;;25.65;33.36;101479.81;5071334;28;45306;-74
2022/05/04 15:31:23;;;;;;;;;6.33;6.33;;;;;25.65;32.68;101478.94;5054311;28;45995;-72
2022/05/04 15:33:49;;;;;;;;;12.33;9.67;;;;;25.63;32.12;101470.94;5070724;28;45586;-74
2022/05/04 15:36:14;;;;;;;;;12.67;9.00;;;;;25.59;32.49;101466.84;5070926;28;48408;-73
2022/05/04 15:38:39;;;;;;;;;7.67;7.00;;;;;25.57;32.80;101473.47;5071989;28;45708;-73
2022/05/04 15:41:05;;;;;;;;;8.00;8.00;;;;;25.55;33.08;101467.34;5069921;28;56550;-72
2022/05/04 15:43:31;;;;;;;;;10.33;6.67;;;;;25.39;33.38;101460.84;5070587;27;45573;-72
2022/05/04 15:45:56;;;;;;;;;8.33;8.33;;;;;25.26;33.60;101470.28;5070495;27;51191;-73
2022/05/04 15:48:21;;;;;;;;;7.67;6.67;;;;;25.16;34.01;101471.41;5052661;28;45587;-72
2022/05/04 15:50:47;;;;;;;;;8.00;6.00;;;;;25.15;34.25;101470.56;5072363;28;56739;-72
2022/05/04 15:53:12;;;;;;;;;8.33;8.33;;;;;25.16;34.03;101474.13;5073695;28;45623;-72
2022/05/04 15:55:38;;;;;;;;;8.00;8.00;;;;;25.15;34.54;101475.13;5072551;28;48984;-72
2022/05/04 15:58:03;;;;;;;;;10.00;9.00;;;;;25.17;34.74;101486.72;5071260;28;45631;-73
2022/05/04 16:00:29;;;;;;;;;6.67;6.00;;;;;25.20;34.86;101476.38;5069844;28;46097;-72
2022/05/04 16:05:39;;;;;;;;;7.67;7.00;;;;;25.27;35.00;101480.13;5069317;28;45696;-72
2022/05/04 16:08:04;;;;;;;;;6.00;5.67;;;;;25.31;35.27;101479.81;5073882;27;45364;-72
2022/05/04 16:10:32;;;;;;;;;5.67;4.00;;;;;25.30;35.23;101481.66;5070851;28;46201;-72
2022/05/04 16:12:57;;;;;;;;;10.67;6.67;;;;;25.31;35.41;101480.66;5069776;27;45261;-72
2022/05/04 16:15:23;;;;;;;;;8.00;6.67;;;;;25.31;35.48;101477.94;5064144;28;46138;-71
2022/05/04 16:23:17;;;;;;;;;10.00;9.67;;;;;25.53;34.82;101481.94;5072449;28;47632;-73
2022/05/04 16:25:42;;;;;;;;;11.67;8.33;;;;;25.63;34.21;101489.97;5069848;28;45556;-72
2022/05/04 16:28:07;;;;;;;;;10.67;5.67;;;;;25.58;34.57;101488.78;5070404;28;56134;-74
2022/05/04 16:30:33;;;;;;;;;8.67;7.67;;;;;25.52;34.64;101490.25;5062168;28;45695;-73
2022/05/04 16:32:58;;;;;;;;;8.33;8.33;;;;;25.47;35.13;101482.56;5052513;28;45444;-72
2022/05/04 16:35:24;;;;;;;;;9.00;7.00;;;;;25.47;35.36;101487.19;5071656;28;46166;-72
2022/05/04 16:37:49;;;;;;;;;6.00;6.00;;;;;25.45;35.63;101479.19;5066847;28;45658;-73
2022/05/04 16:40:15;;;;;;;;;8.00;7.00;;;;;25.48;35.42;101489.75;5068498;28;46437;-76
2022/05/04 16:42:41;;;;;;;;;7.00;7.00;;;;;25.47;35.36;101482.56;5067076;28;45789;-74
2022/05/04 16:45:08;;;;;;;;;7.33;5.00;;;;;25.47;35.58;101482.56;5068006;28;45367;-74
2022/05/04 16:47:33;;;;;;;;;7.00;7.00;;;;;25.50;35.88;101495.84;5072034;28;45514;-74
2022/05/04 16:49:59;;;;;;;;;6.67;6.67;;;;;25.50;35.74;101492.31;5044661;28;45488;-74
2022/05/04 16:52:24;;;;;;;;;6.00;6.00;;;;;25.51;36.05;101488.56;5058644;27;45477;-73
2022/05/04 16:54:49;;;;;;;;;8.00;6.00;;;;;25.52;35.46;101496.56;5067811;28;45702;-73
2022/05/04 16:57:15;;;;;;;;;7.00;7.00;;;;;25.52;36.18;101502.00;5069094;28;47848;-72
2022/05/04 16:59:41;;;;;;;;;8.67;7.00;;;;;25.57;36.05;101498.81;5070181;28;46266;-72
2022/05/04 17:02:07;;;;;;;;;7.67;6.00;;;;;25.61;35.85;101496.59;5067306;28;47601;-73
2022/05/04 17:04:33;;;;;;;;;5.33;4.67;;;;;25.72;36.48;101496.31;5067523;28;45526;-74
2022/05/04 17:06:58;;;;;;;;;4.67;4.00;;;;;25.75;36.20;101495.13;5066607;27;45476;-74